CDT,Max TemperatureF,Mean TemperatureF,Min TemperatureF,Max Dew PointF,MeanDew PointF,Min DewpointF,Max Humidity, Mean Humidity, Min Humidity, Max Sea Level PressureIn, Mean Sea Level PressureIn, Min Sea Level PressureIn, Max VisibilityMiles, Mean VisibilityMiles, Min VisibilityMiles, Max Wind SpeedMPH, Mean Wind SpeedMPH, Max Gust SpeedMPH,PrecipitationIn, CloudCover, Events, WindDirDegrees
2013-3-1,32,25,18,25,21,16,100,82,63,30.32,30.27,30.21,10,9,2,16,10,16,0.00,4,,349
2013-3-2,41,27,12,32,23,9,100,85,70,30.32,30.17,30.00,10,9,4,13,7,,0.00,2,,198
2013-3-3,54,42,30,39,33,28,92,76,59,29.99,29.76,29.60,10,9,5,10,6,,0.00,0,,166
2013-3-4,48,38,27,34,26,10,92,66,40,30.13,29.80,29.59,10,9,5,28,18,39,0.00,4,,313
2013-3-5,37,28,19,18,13,9,77,56,35,30.37,30.26,30.13,10,10,10,29,18,47,0.00,0,,319
2013-3-6,43,30,16,23,18,12,92,67,41,30.36,30.24,30.06,10,10,10,20,10,27,0.00,0,,132
2013-3-7,52,39,25,28,25,21,88,63,38,30.08,30.04,30.00,10,10,5,18,11,20,0.00,0,,120
2013-3-8,57,42,27,48,35,25,92,73,54,30.06,29.94,29.76,10,8,3,17,10,22,0.00,3,,101
2013-3-9,66,47,28,54,40,27,100,78,56,29.81,29.65,29.51,10,6,0,32,21,43,0.01,8,,118
2013-3-10,30,24,18,28,18,14,92,78,63,30.02,29.96,29.81,10,9,2,32,27,46,0.00,5,,330
2013-3-11,55,36,16,28,19,10,84,57,30,30.04,29.93,29.83,10,10,10,22,10,25,0.00,0,,309
2013-3-12,43,32,21,28,15,5,78,50,22,30.32,30.20,30.06,10,10,6,29,16,38,0.00,1,,307
2013-3-13,57,38,18,32,20,10,84,55,26,30.34,30.26,30.12,10,10,10,21,11,29,0.00,1,,178
2013-3-14,73,55,37,37,32,28,82,51,20,30.17,30.10,30.04,10,10,10,15,9,17,0.00,0,,273
2013-3-15,79,61,43,41,34,27,76,46,15,30.05,29.83,29.69,10,10,10,18,9,23,0.00,0,,250
2013-3-16,43,36,28,34,23,18,78,63,47,30.10,30.04,29.89,10,10,10,23,15,36,0.00,4,,33
2013-3-17,45,35,25,32,26,21,96,77,57,30.06,29.86,29.66,10,9,2,18,12,28,0.05,8,,128
2013-3-18,46,36,25,34,20,7,100,62,24,30.06,29.91,29.70,10,9,3,21,12,31,0.00,3,,304
2013-3-19,46,36,25,34,25,12,85,61,36,30.34,30.13,30.01,10,10,6,21,10,25,0.02,7,,265
2013-3-20,45,30,14,21,14,9,88,58,27,30.38,30.23,29.98,10,10,10,15,7,,0.00,1,,215
2013-3-21,45,36,27,25,18,12,69,50,31,29.99,29.85,29.76,10,10,10,24,17,32,T,4,,112
2013-3-22,36,32,27,32,28,25,100,91,82,29.96,29.90,29.87,7,4,1,13,8,,0.05,8,,114
2013-3-23,30,27,23,30,26,16,100,84,68,30.13,30.03,29.95,10,3,1,25,16,32,0.00,8,,33
2013-3-24,36,27,18,18,14,10,84,63,41,30.18,30.12,30.06,10,10,10,27,18,36,0.00,3,,323
2013-3-25,28,22,16,18,13,10,84,65,46,30.34,30.27,30.17,10,10,8,23,14,32,0.00,3,,319
2013-3-26,46,28,10,25,16,9,92,60,28,30.34,30.23,30.11,10,10,2,15,9,21,0.00,1,,180
2013-3-27,55,39,23,28,25,19,88,60,32,30.18,30.13,30.08,10,10,10,15,8,18,0.00,1,,110
2013-3-28,64,45,25,34,27,21,92,57,21,30.19,30.15,30.09,10,10,4,17,8,27,0.00,1,,153
2013-3-29,72,51,30,50,35,25,83,56,28,30.18,30.09,29.98,10,10,5,21,10,27,0.44,1,Thunderstorm,153
2013-3-30,66,52,37,48,43,36,100,67,34,30.06,29.99,29.93,10,7,0,20,10,27,0.03,5,,1
2013-3-31,64,49,34,43,33,25,89,58,27,30.13,30.01,29.86,10,10,10,27,11,33,0.00,3,,304